createdAt,value
2023-03-02T00:01:47.036Z,101449.00
2023-03-02T00:04:19.066Z,101440.63
2023-03-02T00:06:49.517Z,101455.19
2023-03-02T00:09:18.167Z,101455.25
2023-03-02T00:11:46.636Z,101456.78
2023-03-02T00:14:14.479Z,101455.50
2023-03-02T00:16:42.179Z,101462.31
2023-03-02T00:19:09.979Z,101464.22
2023-03-02T00:21:37.761Z,101459.06
2023-03-02T00:24:07.855Z,101461.78
2023-03-02T00:26:35.759Z,101464.69
2023-03-02T00:29:04.810Z,101457.00
2023-03-02T00:31:32.644Z,101454.50
2023-03-02T00:34:00.556Z,101453.69
2023-03-02T00:36:28.307Z,101424.91
2023-03-02T00:38:57.450Z,101448.72
2023-03-02T00:41:26.562Z,101451.47
2023-03-02T00:43:54.363Z,101451.47
2023-03-02T00:46:24.312Z,101433.78
2023-03-02T00:48:52.624Z,101449.75
2023-03-02T00:51:20.918Z,101449.81
2023-03-02T00:53:48.674Z,101440.44
2023-03-02T00:56:16.469Z,101442.16
2023-03-02T00:58:50.451Z,101439.44
2023-03-02T01:01:18.824Z,101437.31
2023-03-02T01:03:50.286Z,101433.22
2023-03-02T01:06:21.592Z,101419.72
2023-03-02T01:08:49.679Z,101429.91
2023-03-02T01:11:19.773Z,101427.47
2023-03-02T01:13:48.271Z,101421.53
2023-03-02T01:16:17.696Z,101419.59
2023-03-02T01:18:45.575Z,101419.66
2023-03-02T01:21:15.361Z,101396.03
2023-03-02T01:23:43.783Z,101416.56
2023-03-02T01:26:12.757Z,101417.47
2023-03-02T01:28:40.553Z,101414.16
2023-03-02T01:31:08.473Z,101408.00
2023-03-02T01:33:37.662Z,101382.34
2023-03-02T01:36:06.090Z,101400.44
2023-03-02T01:38:33.928Z,101370.56
2023-03-02T01:41:01.751Z,101382.34
2023-03-02T01:43:30.199Z,101383.22
2023-03-02T01:46:02.768Z,101384.00
2023-03-02T01:48:55.576Z,101380.88
2023-03-02T01:51:48.705Z,101375.78
2023-03-02T01:54:23.839Z,101375.56
2023-03-02T01:57:00.605Z,101306.03
2023-03-02T01:59:32.200Z,101375.56
2023-03-02T02:02:03.654Z,101368.66
2023-03-02T02:04:35.478Z,101373.84
2023-03-02T02:07:05.525Z,101373.00
2023-03-02T02:09:38.294Z,101378.38
2023-03-02T02:12:06.806Z,101369.75
2023-03-02T02:14:35.188Z,101372.25
2023-03-02T02:17:03.381Z,101365.28
2023-03-02T02:19:45.949Z,101365.44
2023-03-02T02:22:22.467Z,101361.97
2023-03-02T02:24:57.364Z,101362.16
2023-03-02T02:27:33.635Z,101369.00
2023-03-02T02:30:04.046Z,101346.03
2023-03-02T02:32:36.102Z,101368.75
2023-03-02T02:35:08.050Z,101351.88
2023-03-02T02:37:42.363Z,101363.94
2023-03-02T02:40:16.403Z,101360.38
2023-03-02T02:42:48.993Z,101356.94
2023-03-02T02:45:24.012Z,101353.47
2023-03-02T02:47:53.459Z,101367.19
2023-03-02T02:50:25.127Z,101361.97
2023-03-02T02:52:58.410Z,101365.59
2023-03-02T02:55:27.706Z,101357.88
2023-03-02T02:58:00.479Z,101347.03
2023-03-02T03:00:28.529Z,101358.09
2023-03-02T03:03:06.081Z,101358.09
2023-03-02T03:05:33.893Z,101358.19
2023-03-02T03:08:09.566Z,101361.06
2023-03-02T03:10:41.195Z,101348.94
2023-03-02T03:13:12.510Z,101349.75
2023-03-02T03:15:40.248Z,101349.78
2023-03-02T03:18:09.078Z,101355.75
2023-03-02T03:20:36.828Z,101351.50
2023-03-02T03:23:04.761Z,101344.25
2023-03-02T03:25:34.965Z,101346.69
2023-03-02T03:28:03.996Z,101330.81
2023-03-02T03:30:34.431Z,101339.88
2023-03-02T03:33:02.648Z,101333.38
2023-03-02T03:35:31.010Z,101340.22
2023-03-02T03:37:59.152Z,101311.47
2023-03-02T03:40:29.067Z,101346.38
2023-03-02T03:42:57.204Z,101340.13
2023-03-02T03:45:25.129Z,101352.19
2023-03-02T03:47:54.461Z,101342.84
2023-03-02T03:50:23.498Z,101342.84
2023-03-02T03:52:51.558Z,101341.38
2023-03-02T03:55:28.346Z,101343.91
2023-03-02T03:57:56.622Z,101349.03
2023-03-02T04:00:25.243Z,101343.00
2023-03-02T04:03:00.453Z,101332.31
2023-03-02T04:05:31.748Z,101341.47
2023-03-02T04:08:02.098Z,101340.13
2023-03-02T04:10:31.289Z,101345.31
2023-03-02T04:12:59.403Z,101345.44
2023-03-02T04:15:28.389Z,101352.28
2023-03-02T04:17:57.620Z,101346.38
2023-03-02T04:20:28.873Z,101334.56
2023-03-02T04:22:58.731Z,101343.97
2023-03-02T04:25:29.440Z,101337.84
2023-03-02T04:28:02.335Z,101338.78
2023-03-02T04:30:35.381Z,101341.19
2023-03-02T04:33:03.272Z,101335.22
2023-03-02T04:35:33.971Z,101334.31
2023-03-02T04:38:03.222Z,101340.44
2023-03-02T04:40:31.418Z,101342.13
2023-03-02T04:42:59.200Z,101343.13
2023-03-02T04:45:26.992Z,101342.38
2023-03-02T04:47:54.721Z,101335.78
2023-03-02T04:50:22.815Z,101340.00
2023-03-02T04:52:53.651Z,101338.97
2023-03-02T04:55:23.683Z,101346.09
2023-03-02T04:57:51.704Z,101331.53
2023-03-02T05:00:21.687Z,101331.38
2023-03-02T05:02:49.672Z,101335.78
2023-03-02T05:05:19.594Z,101331.63
2023-03-02T05:07:48.140Z,101331.66
2023-03-02T05:10:18.652Z,101332.41
2023-03-02T05:12:57.838Z,101336.59
2023-03-02T05:15:27.192Z,101347.13
2023-03-02T05:17:55.024Z,101336.72
2023-03-02T05:20:27.389Z,101340.84
2023-03-02T05:22:56.472Z,101334.94
2023-03-02T05:25:26.888Z,101334.13
2023-03-02T05:27:54.736Z,101330.81
2023-03-02T05:30:24.200Z,101330.81
2023-03-02T05:32:53.398Z,101334.31
2023-03-02T05:35:22.685Z,101314.00
2023-03-02T05:37:50.715Z,101337.97
2023-03-02T05:40:21.173Z,101339.69
2023-03-02T05:42:50.657Z,101347.44
2023-03-02T05:45:21.554Z,101335.63
2023-03-02T05:47:49.316Z,101338.25
2023-03-02T05:50:17.546Z,101345.28
2023-03-02T05:52:46.387Z,101321.50
2023-03-02T05:55:14.759Z,101351.22
2023-03-02T05:57:42.685Z,101350.44
2023-03-02T06:00:15.570Z,101339.31
2023-03-02T06:02:44.218Z,101339.38
2023-03-02T06:05:15.326Z,101326.69
2023-03-02T06:07:43.981Z,101318.94
2023-03-02T06:10:13.656Z,101342.66
2023-03-02T06:12:42.912Z,101343.38
2023-03-02T06:15:12.088Z,101345.28
2023-03-02T06:17:40.003Z,101339.47
2023-03-02T06:20:10.976Z,101348.03
2023-03-02T06:22:41.209Z,101355.06
2023-03-02T06:25:10.400Z,101351.56
2023-03-02T06:27:39.246Z,101349.03
2023-03-02T06:30:08.541Z,101350.81
2023-03-02T06:32:37.740Z,101354.06
2023-03-02T06:35:06.825Z,101364.44
2023-03-02T06:37:34.798Z,101363.69
2023-03-02T06:40:02.551Z,101360.22
2023-03-02T06:42:30.484Z,101362.88
2023-03-02T06:44:58.244Z,101370.69
2023-03-02T06:47:26.064Z,101367.31
2023-03-02T06:49:55.179Z,101367.22
2023-03-02T06:52:23.090Z,101344.16
2023-03-02T06:54:50.842Z,101364.38
2023-03-02T06:57:18.651Z,101363.47
2023-03-02T06:59:46.410Z,101364.19
2023-03-02T07:02:14.358Z,101369.16
2023-03-02T07:04:42.089Z,101370.16
2023-03-02T07:07:11.270Z,101376.28
2023-03-02T07:09:39.044Z,101365.03
2023-03-02T07:12:07.377Z,101368.50
2023-03-02T07:14:36.349Z,101369.16
2023-03-02T07:17:05.329Z,101361.41
2023-03-02T07:19:33.093Z,101364.75
2023-03-02T07:22:01.078Z,101362.75
2023-03-02T07:24:30.226Z,101358.22
2023-03-02T07:26:57.969Z,101361.59
2023-03-02T07:29:25.786Z,101364.16
2023-03-02T07:31:57.138Z,101368.41
2023-03-02T07:34:25.649Z,101364.91
2023-03-02T07:36:54.126Z,101363.09
2023-03-02T07:39:22.045Z,101364.66
2023-03-02T07:41:51.268Z,101364.66
2023-03-02T07:44:22.161Z,101362.88
2023-03-02T07:46:49.989Z,101361.09
2023-03-02T07:49:19.716Z,101362.66
2023-03-02T07:51:47.477Z,101338.78
2023-03-02T07:54:15.204Z,101365.69
2023-03-02T07:56:43.052Z,101365.53
2023-03-02T07:59:12.446Z,101359.31
2023-03-02T08:01:41.909Z,101358.47
2023-03-02T08:04:09.634Z,101367.53
2023-03-02T08:06:37.431Z,101370.63
2023-03-02T08:09:05.604Z,101377.22
2023-03-02T08:11:33.697Z,101370.03
2023-03-02T08:14:02.182Z,101377.69
2023-03-02T08:16:31.860Z,101377.41
2023-03-02T08:19:00.116Z,101369.53
2023-03-02T08:21:29.268Z,101372.72
2023-03-02T08:23:58.392Z,101375.13
2023-03-02T08:26:26.188Z,101369.69
2023-03-02T08:28:53.953Z,101381.56
2023-03-02T08:31:21.715Z,101378.63
2023-03-02T08:33:50.967Z,101380.28
2023-03-02T08:36:20.680Z,101377.41
2023-03-02T08:38:49.902Z,101379.72
2023-03-02T08:41:20.029Z,101372.56
2023-03-02T08:43:48.026Z,101371.72
2023-03-02T08:46:18.215Z,101374.84
2023-03-02T08:48:46.318Z,101371.06
2023-03-02T08:51:17.430Z,101367.41
2023-03-02T08:53:47.229Z,101361.13
2023-03-02T08:56:20.083Z,101353.31
2023-03-02T08:58:48.675Z,101354.75
2023-03-02T09:01:18.338Z,101356.31
2023-03-02T09:03:46.215Z,101360.53
2023-03-02T09:06:16.279Z,101348.28
2023-03-02T09:08:44.276Z,101354.22
2023-03-02T09:11:12.188Z,101357.50
2023-03-02T09:13:40.196Z,101334.06
2023-03-02T09:16:09.405Z,101349.25
2023-03-02T09:18:37.568Z,101353.44
2023-03-02T09:21:06.336Z,101354.97
2023-03-02T09:23:36.585Z,101351.97
2023-03-02T09:26:05.163Z,101351.03
2023-03-02T09:28:33.230Z,101338.91
2023-03-02T09:31:02.644Z,101344.63
2023-03-02T09:33:31.453Z,101340.75
2023-03-02T09:35:59.685Z,101336.91
2023-03-02T09:38:27.882Z,101335.09
2023-03-02T09:41:14.073Z,101340.75
2023-03-02T09:43:49.771Z,101343.19
2023-03-02T09:46:21.901Z,101338.56
2023-03-02T09:49:17.504Z,101341.81
2023-03-02T09:51:51.459Z,101336.97
2023-03-02T09:54:24.508Z,101340.41
2023-03-02T09:56:56.018Z,101331.84
2023-03-02T09:59:27.140Z,101336.00
2023-03-02T10:02:01.283Z,101334.59
2023-03-02T10:04:32.159Z,101336.56
2023-03-02T10:07:11.581Z,101342.03
2023-03-02T10:09:40.046Z,101337.66
2023-03-02T10:12:28.345Z,101342.22
2023-03-02T10:15:02.411Z,101335.97
2023-03-02T10:17:44.088Z,101330.72
2023-03-02T10:20:17.471Z,101326.88
2023-03-02T10:22:51.125Z,101317.22
2023-03-02T10:25:27.781Z,101326.97
2023-03-02T10:28:02.834Z,101320.97
2023-03-02T10:30:35.227Z,101328.75
2023-03-02T10:33:09.287Z,101326.66
2023-03-02T10:35:39.358Z,101329.06
2023-03-02T10:38:13.608Z,101321.31
2023-03-02T10:40:44.494Z,101325.06
2023-03-02T10:43:18.834Z,101318.44
2023-03-02T10:45:47.575Z,101310.25
2023-03-02T10:48:16.068Z,101315.53
2023-03-02T10:50:45.203Z,101314.16
2023-03-02T10:53:18.894Z,101312.94
2023-03-02T10:55:48.783Z,101311.25
2023-03-02T10:58:25.774Z,101311.09
2023-03-02T11:00:59.111Z,101295.72
2023-03-02T11:03:27.615Z,101304.66
2023-03-02T11:05:55.784Z,101292.28
2023-03-02T11:08:27.469Z,101293.59
2023-03-02T11:11:00.642Z,101300.50
2023-03-02T11:13:32.459Z,101304.38
2023-03-02T11:16:02.299Z,101299.09
2023-03-02T11:18:33.987Z,101296.47
2023-03-02T11:21:05.590Z,101299.31
2023-03-02T11:23:41.924Z,101296.78
2023-03-02T11:26:19.126Z,101300.94
2023-03-02T11:28:55.809Z,101297.41
2023-03-02T11:31:32.710Z,101279.47
2023-03-02T11:34:17.302Z,101291.97
2023-03-02T11:36:58.913Z,101287.59
2023-03-02T11:39:32.709Z,101291.69
2023-03-02T11:42:00.526Z,101294.81
2023-03-02T11:44:29.856Z,101290.47
2023-03-02T11:47:02.026Z,101290.72
2023-03-02T11:49:38.940Z,101279.38
2023-03-02T11:52:17.057Z,101277.78
2023-03-02T11:54:47.642Z,101276.06
2023-03-02T11:57:23.823Z,101283.03
2023-03-02T11:59:54.694Z,101273.00
2023-03-02T12:02:23.169Z,101268.44
2023-03-02T12:04:50.967Z,101262.44
2023-03-02T12:07:23.334Z,101260.75
2023-03-02T12:10:02.609Z,101258.72
2023-03-02T12:13:01.811Z,101259.69
2023-03-02T12:15:41.398Z,101249.94
2023-03-02T12:18:29.318Z,101255.81
2023-03-02T12:21:02.745Z,101245.84
2023-03-02T12:23:31.715Z,101247.91
2023-03-02T12:26:07.020Z,101236.00
2023-03-02T12:28:36.955Z,101231.00
2023-03-02T12:31:10.804Z,101237.13
2023-03-02T12:33:48.757Z,101229.91
2023-03-02T12:36:23.673Z,101231.91
2023-03-02T12:39:13.326Z,101228.38
2023-03-02T12:41:55.612Z,101213.88
2023-03-02T12:44:47.802Z,101212.66
2023-03-02T12:47:26.105Z,101211.41
2023-03-02T12:49:57.846Z,101212.00
2023-03-02T12:52:32.861Z,101207.28
2023-03-02T12:55:02.774Z,101206.09
2023-03-02T12:57:31.482Z,101203.41
2023-03-02T13:00:01.208Z,101204.75
2023-03-02T13:02:34.337Z,101195.56
2023-03-02T13:05:04.438Z,101201.84
2023-03-02T13:07:41.234Z,101182.97
2023-03-02T13:10:21.495Z,101192.13
2023-03-02T13:12:49.449Z,101183.09
2023-03-02T13:15:18.613Z,101178.13
2023-03-02T13:17:54.815Z,101183.53
2023-03-02T13:20:23.654Z,101180.53
2023-03-02T13:22:51.562Z,101187.25
2023-03-02T13:25:26.620Z,101182.88
2023-03-02T13:27:57.026Z,101179.25
2023-03-02T13:30:28.011Z,101177.59
2023-03-02T13:33:02.805Z,101171.44
2023-03-02T13:35:32.770Z,101172.53
2023-03-02T13:38:04.566Z,101161.31
2023-03-02T13:40:44.716Z,101170.09
2023-03-02T13:43:24.017Z,101166.59
2023-03-02T13:45:54.543Z,101164.06
2023-03-02T13:48:24.114Z,101153.97
2023-03-02T13:50:54.497Z,101165.41
2023-03-02T13:53:24.247Z,101157.50
2023-03-02T13:55:54.044Z,101155.53
2023-03-02T13:58:24.405Z,101154.09
2023-03-02T14:00:52.735Z,101155.06
2023-03-02T14:03:26.146Z,101158.69
2023-03-02T14:05:54.549Z,101148.78
2023-03-02T14:08:22.482Z,101143.50
2023-03-02T14:10:52.695Z,101125.88
2023-03-02T14:13:22.957Z,101139.91
2023-03-02T14:15:54.093Z,101136.66
2023-03-02T14:18:32.581Z,101135.81
2023-03-02T14:21:00.610Z,101129.97
2023-03-02T14:23:28.851Z,101132.78
2023-03-02T14:25:57.590Z,101129.69
2023-03-02T14:28:29.007Z,101130.94
2023-03-02T14:30:58.944Z,101134.81
2023-03-02T14:33:28.412Z,101126.84
2023-03-02T14:35:59.343Z,101126.84
2023-03-02T14:38:28.180Z,101123.25
2023-03-02T14:40:56.288Z,101123.25
2023-03-02T14:43:25.238Z,101114.00
2023-03-02T14:45:53.337Z,101124.28
2023-03-02T14:48:21.206Z,101113.47
2023-03-02T14:50:51.274Z,101115.41
2023-03-02T14:53:23.194Z,101118.91
2023-03-02T14:55:51.090Z,101110.63
2023-03-02T14:58:20.994Z,101112.94
2023-03-02T15:00:49.010Z,101107.03
2023-03-02T15:03:19.350Z,101109.25
2023-03-02T15:06:00.167Z,101112.53
2023-03-02T15:08:30.406Z,101099.34
2023-03-02T15:10:58.158Z,101106.59
2023-03-02T15:13:25.893Z,101101.53
2023-03-02T15:15:53.712Z,101101.22
2023-03-02T15:18:21.425Z,101105.19
2023-03-02T15:20:49.149Z,101114.03
2023-03-02T15:23:16.861Z,101099.59
2023-03-02T15:25:45.997Z,101112.72
2023-03-02T15:28:13.872Z,101103.00
2023-03-02T15:30:41.815Z,101109.75
2023-03-02T15:33:09.549Z,101099.56
2023-03-02T15:35:40.203Z,101102.31
2023-03-02T15:38:07.983Z,101103.06
2023-03-02T15:40:36.746Z,101111.75
2023-03-02T15:43:05.904Z,101104.53
2023-03-02T15:45:33.695Z,101103.09
2023-03-02T15:48:01.475Z,101098.97
2023-03-02T15:50:29.289Z,101104.25
2023-03-02T15:52:57.430Z,101104.63
2023-03-02T15:55:25.202Z,101111.44
2023-03-02T15:57:53.536Z,101095.34
2023-03-02T16:00:23.457Z,101106.16
2023-03-02T16:02:51.285Z,101105.16
2023-03-02T16:05:19.070Z,101105.63
2023-03-02T16:07:46.851Z,101117.59
2023-03-02T16:10:16.478Z,101113.53
2023-03-02T16:12:44.316Z,101119.16
2023-03-02T16:15:12.415Z,101116.84
2023-03-02T16:17:43.251Z,101098.56
2023-03-02T16:20:12.413Z,101116.69
2023-03-02T16:22:40.266Z,101123.25
2023-03-02T16:25:08.664Z,101113.19
2023-03-02T16:27:36.346Z,101123.97
2023-03-02T16:30:04.970Z,101128.28
2023-03-02T16:32:33.991Z,101127.78
2023-03-02T16:35:03.137Z,101122.72
2023-03-02T16:37:30.916Z,101129.19
2023-03-02T16:39:58.729Z,101133.84
2023-03-02T16:42:28.400Z,101133.44
2023-03-02T16:44:56.136Z,101140.34
2023-03-02T16:47:23.848Z,101125.59
2023-03-02T16:49:51.557Z,101143.13
2023-03-02T16:52:20.610Z,101145.31
2023-03-02T16:54:48.369Z,101145.41
2023-03-02T16:57:16.090Z,101143.44
2023-03-02T16:59:43.904Z,101157.03
2023-03-02T17:02:12.193Z,101149.59
2023-03-02T17:04:40.081Z,101154.13
2023-03-02T17:07:08.665Z,101148.03
2023-03-02T17:09:41.379Z,101156.66
2023-03-02T17:12:12.542Z,101101.25
2023-03-02T17:14:45.594Z,101080.22
2023-03-02T17:17:15.706Z,101066.06
2023-03-02T17:19:44.269Z,101098.28
2023-03-02T17:22:14.990Z,101075.34
2023-03-02T17:24:44.830Z,101173.94
2023-03-02T17:27:24.178Z,101173.69
2023-03-02T17:29:53.074Z,101151.53
2023-03-02T17:32:21.350Z,101176.09
2023-03-02T17:34:49.068Z,101180.16
2023-03-02T17:37:17.518Z,101191.19
2023-03-02T17:39:46.849Z,101196.66
2023-03-02T17:42:14.601Z,101193.28
2023-03-02T17:44:43.705Z,101193.16
2023-03-02T17:47:11.642Z,101192.69
2023-03-02T17:49:39.648Z,101195.63
2023-03-02T17:52:07.935Z,101192.44
2023-03-02T17:54:35.688Z,101203.16
2023-03-02T17:57:04.875Z,101199.06
2023-03-02T17:59:32.899Z,101211.78
2023-03-02T18:02:00.711Z,101212.81
2023-03-02T18:04:28.580Z,101219.69
2023-03-02T18:06:56.324Z,101218.75
2023-03-02T18:09:24.170Z,101233.00
2023-03-02T18:11:51.943Z,101224.78
2023-03-02T18:14:21.849Z,101227.16
2023-03-02T18:16:49.664Z,101231.16
2023-03-02T18:19:17.439Z,101229.88
2023-03-02T18:21:45.383Z,101226.09
2023-03-02T18:24:13.493Z,101237.63
2023-03-02T18:26:41.773Z,101229.66
2023-03-02T18:29:09.545Z,101247.28
2023-03-02T18:31:38.746Z,101244.31
2023-03-02T18:34:06.558Z,101236.03
2023-03-02T18:36:34.390Z,101235.91
2023-03-02T18:39:03.339Z,101230.22
2023-03-02T18:41:32.550Z,101246.72
2023-03-02T18:44:03.770Z,101239.19
2023-03-02T18:46:32.954Z,101255.63
2023-03-02T18:49:04.165Z,101253.16
2023-03-02T18:51:32.112Z,101256.63
2023-03-02T18:53:59.807Z,101254.78
2023-03-02T18:56:27.664Z,101261.88
2023-03-02T18:58:55.481Z,101263.41
2023-03-02T19:01:23.252Z,101261.41
2023-03-02T19:03:51.029Z,101261.63
2023-03-02T19:06:20.500Z,101265.44
2023-03-02T19:08:48.307Z,101263.94
2023-03-02T19:11:16.117Z,101272.19
2023-03-02T19:13:43.956Z,101273.28
2023-03-02T19:16:11.779Z,101273.63
2023-03-02T19:18:39.860Z,101262.44
2023-03-02T19:21:07.769Z,101273.38
2023-03-02T19:23:36.967Z,101278.53
2023-03-02T19:26:05.611Z,101276.84
2023-03-02T19:28:34.156Z,101278.69
2023-03-02T19:31:03.804Z,101291.81
2023-03-02T19:33:31.591Z,101287.69
2023-03-02T19:35:59.550Z,101280.25
2023-03-02T19:38:29.253Z,101290.00
2023-03-02T19:41:00.250Z,101294.16
2023-03-02T19:43:28.317Z,101291.97
2023-03-02T19:45:56.507Z,101296.44
2023-03-02T19:48:29.842Z,101296.03
2023-03-02T19:50:57.829Z,101290.47
2023-03-02T19:53:25.544Z,101295.88
2023-03-02T19:55:53.296Z,101300.75
2023-03-02T19:58:23.413Z,101301.28
2023-03-02T20:00:51.399Z,101302.28
2023-03-02T20:03:19.178Z,101286.72
2023-03-02T20:05:46.961Z,101297.22
2023-03-02T20:08:16.740Z,101299.25
2023-03-02T20:10:46.628Z,101301.44
2023-03-02T20:13:14.934Z,101307.44
2023-03-02T20:15:46.101Z,101305.75
2023-03-02T20:18:16.461Z,101312.94
2023-03-02T20:20:45.199Z,101311.59
2023-03-02T20:23:13.477Z,101313.44
2023-03-02T20:25:41.346Z,101314.13
2023-03-02T20:28:11.805Z,101317.00
2023-03-02T20:30:42.567Z,101322.47
2023-03-02T20:33:13.143Z,101320.38
2023-03-02T20:35:43.647Z,101330.06
2023-03-02T20:38:16.020Z,101333.63
2023-03-02T20:40:44.616Z,101323.44
2023-03-02T20:43:12.803Z,101331.16
2023-03-02T20:45:41.176Z,101324.22
2023-03-02T20:48:09.004Z,101323.72
2023-03-02T20:50:38.623Z,101324.56
2023-03-02T20:53:10.077Z,101328.09
2023-03-02T20:55:37.820Z,101337.22
2023-03-02T20:58:06.394Z,101329.75
2023-03-02T21:00:36.583Z,101328.22
2023-03-02T21:03:05.412Z,101333.75
2023-03-02T21:05:35.008Z,101321.84
2023-03-02T21:08:04.251Z,101335.63
2023-03-02T21:10:35.525Z,101333.41
2023-03-02T21:13:03.529Z,101330.16
2023-03-02T21:15:32.195Z,101337.16
2023-03-02T21:18:00.449Z,101324.47
2023-03-02T21:20:31.384Z,101331.41
2023-03-02T21:22:59.327Z,101331.53
2023-03-02T21:25:28.992Z,101325.66
2023-03-02T21:27:56.850Z,101332.84
2023-03-02T21:30:27.974Z,101327.38
2023-03-02T21:32:55.771Z,101323.81
2023-03-02T21:35:24.185Z,101330.06
2023-03-02T21:37:54.754Z,101325.16
2023-03-02T21:40:26.352Z,101326.00
2023-03-02T21:42:55.997Z,101320.28
2023-03-02T21:45:24.176Z,101326.75
2023-03-02T21:47:52.038Z,101330.31
2023-03-02T21:50:22.452Z,101329.44
2023-03-02T21:52:50.670Z,101326.97
2023-03-02T21:55:18.567Z,101320.13
2023-03-02T21:57:46.419Z,101318.28
2023-03-02T22:00:22.647Z,101320.13
2023-03-02T22:02:51.083Z,101326.91
2023-03-02T22:05:19.218Z,101323.50
2023-03-02T22:07:47.625Z,101320.81
2023-03-02T22:10:25.680Z,101303.56
2023-03-02T22:12:56.195Z,101310.13
2023-03-02T22:15:25.267Z,101312.13
2023-03-02T22:17:53.029Z,101308.66
2023-03-02T22:20:21.276Z,101313.06
2023-03-02T22:22:49.736Z,101314.19
2023-03-02T22:25:19.640Z,101314.44
2023-03-02T22:27:48.062Z,101323.50
2023-03-02T22:30:19.698Z,101322.72
2023-03-02T22:32:49.665Z,101309.94
2023-03-02T22:35:23.605Z,101324.56
2023-03-02T22:37:52.843Z,101316.81
2023-03-02T22:40:30.375Z,101326.56
2023-03-02T22:43:11.257Z,101319.63
2023-03-02T22:45:40.641Z,101315.19
2023-03-02T22:48:16.665Z,101323.28
2023-03-02T22:50:45.950Z,101308.97
2023-03-02T22:53:29.471Z,101320.94
2023-03-02T22:55:59.576Z,101320.66
2023-03-02T22:58:45.799Z,101318.56
2023-03-02T23:01:21.821Z,101309.19
2023-03-02T23:03:52.663Z,101325.03
2023-03-02T23:06:27.581Z,101325.97
2023-03-02T23:08:57.428Z,101329.72
2023-03-02T23:11:25.885Z,101335.00
2023-03-02T23:13:54.307Z,101329.97
2023-03-02T23:16:24.115Z,101332.56
2023-03-02T23:18:54.901Z,101337.16
2023-03-02T23:21:28.251Z,101326.72
2023-03-02T23:23:56.257Z,101334.56
2023-03-02T23:26:24.022Z,101341.41
2023-03-02T23:28:52.130Z,101339.16
2023-03-02T23:31:21.195Z,101341.63
2023-03-02T23:33:49.343Z,101337.63
2023-03-02T23:36:21.117Z,101339.31
2023-03-02T23:38:49.653Z,101337.75
2023-03-02T23:41:18.349Z,101342.16
2023-03-02T23:43:46.520Z,101350.97
2023-03-02T23:46:14.573Z,101358.03
2023-03-02T23:48:42.567Z,101353.94
2023-03-02T23:51:10.919Z,101357.56
2023-03-02T23:53:40.014Z,101348.94
2023-03-02T23:56:08.373Z,101359.53
2023-03-02T23:58:36.113Z,101352.47
